Time;durP1;ratioP1;P1;durP2;ratioP2;P2;SDS_P1;SDS_P2;PMS_P1;PMS_P2;Temp;Humidity;BMP_temperature;BMP_pressure;BME280_temperature;BME280_humidity;BME280_pressure;Samples;Min_cycle;Max_cycle;Signal;HPM_P1;HPM_P2
2023/04/01 00:00:09;;;;;;;23.80;13.55;;;;;;;9.20;100.00;99196.00;10420810;28;20061;-70
2023/04/01 00:05:10;;;;;;;23.83;13.40;;;;;;;9.22;100.00;99189.13;10420443;28;20042;-70
2023/04/01 00:10:11;;;;;;;27.58;13.60;;;;;;;9.14;100.00;99180.69;10409283;28;20038;-71
2023/04/01 00:15:11;;;;;;;21.90;12.88;;;;;;;9.20;100.00;99185.84;10378098;28;20109;-71
2023/04/01 00:20:12;;;;;;;25.20;13.55;;;;;;;9.18;100.00;99192.75;10377548;28;20053;-71
2023/04/01 00:25:12;;;;;;;24.02;13.70;;;;;;;9.17;100.00;99194.66;10361219;28;20037;-71
2023/04/01 00:30:13;;;;;;;25.05;13.95;;;;;;;9.15;100.00;99193.31;10377131;28;20511;-71
2023/04/01 00:35:14;;;;;;;23.52;13.93;;;;;;;9.13;100.00;99192.75;10361225;28;20367;-69
2023/04/01 00:40:44;;;;;;;25.98;14.90;;;;;;;9.12;100.00;99197.44;10396805;28;20062;-66
2023/04/01 00:45:45;;;;;;;32.88;16.85;;;;;;;9.09;100.00;99189.75;10368122;28;20046;-70
2023/04/01 00:50:48;;;;;;;28.88;15.50;;;;;;;9.09;100.00;99193.34;10400427;28;20169;-70
2023/04/01 00:55:51;;;;;;;26.48;14.82;;;;;;;8.99;100.00;99182.44;10418316;28;20069;-71
2023/04/01 01:00:52;;;;;;;26.98;14.95;;;;;;;9.03;100.00;99191.75;10400946;28;20405;-70
2023/04/01 01:05:55;;;;;;;30.13;15.40;;;;;;;9.01;100.00;99193.97;10419846;28;20041;-69
2023/04/01 01:10:56;;;;;;;27.02;14.55;;;;;;;8.92;100.00;99190.16;10413398;28;20041;-71
2023/04/01 01:16:08;;;;;;;31.38;16.20;;;;;;;8.98;100.00;99200.00;10398956;28;20049;-71
2023/04/01 01:21:10;;;;;;;33.83;16.25;;;;;;;8.99;100.00;99192.59;10417689;28;20038;-70
2023/04/01 01:26:22;;;;;;;29.13;16.27;;;;;;;8.95;100.00;99186.88;10383438;28;20041;-69
2023/04/01 01:31:42;;;;;;;32.15;16.88;;;;;;;8.91;100.00;99196.78;10390696;28;20046;-69
2023/04/01 01:36:44;;;;;;;30.25;16.10;;;;;;;8.88;100.00;99189.09;10374522;28;20096;-70
2023/04/01 01:41:46;;;;;;;31.92;16.27;;;;;;;8.86;100.00;99197.59;10358896;28;20042;-70
2023/04/01 01:46:47;;;;;;;30.48;16.45;;;;;;;8.85;100.00;99197.91;10374581;28;20165;-70
2023/04/01 01:51:48;;;;;;;33.58;17.02;;;;;;;8.85;100.00;99195.16;10404978;28;20377;-70
2023/04/01 01:56:50;;;;;;;38.38;17.30;;;;;;;8.81;100.00;99199.59;10416588;28;20037;-70
2023/04/01 02:01:51;;;;;;;36.58;18.65;;;;;;;8.74;100.00;99188.09;10416758;28;20133;-70
2023/04/01 02:07:02;;;;;;;35.45;16.45;;;;;;;8.84;100.00;99209.97;10398409;28;20432;-70
2023/04/01 02:12:06;;;;;;;35.67;18.00;;;;;;;8.84;100.00;99210.78;10398227;28;20053;-70
2023/04/01 02:17:29;;;;;;;36.58;19.48;;;;;;;8.76;100.00;99196.84;10384157;28;20543;-70
2023/04/01 02:22:33;;;;;;;35.25;18.73;;;;;;;8.80;100.00;99197.91;10373581;28;20049;-69
2023/04/01 02:27:33;;;;;;;44.97;22.67;;;;;;;8.91;100.00;99221.47;10358875;28;20124;-70
2023/04/01 02:32:34;;;;;;;41.00;22.38;;;;;;;8.43;100.00;99164.41;10356673;28;20053;-70
2023/04/01 02:37:34;;;;;;;39.08;19.60;;;;;;;8.69;100.00;99181.53;10374176;28;20087;-70
2023/04/01 02:42:35;;;;;;;42.25;19.73;;;;;;;8.96;100.00;99220.63;10386331;28;20037;-70
2023/04/01 02:47:36;;;;;;;35.00;18.40;;;;;;;8.97;100.00;99220.34;10393737;28;20070;-70
2023/04/01 02:52:36;;;;;;;38.65;19.02;;;;;;;8.98;100.00;99235.69;10430012;28;20516;-70
2023/04/01 02:57:37;;;;;;;39.58;18.05;;;;;;;8.98;100.00;99235.69;10429697;28;20041;-70
2023/04/01 03:02:38;;;;;;;41.53;20.13;;;;;;;8.97;100.00;99236.81;10410461;28;20104;-70
2023/04/01 03:07:39;;;;;;;48.30;21.10;;;;;;;8.95;100.00;99233.53;10426675;28;20033;-70
2023/04/01 03:12:39;;;;;;;48.25;20.77;;;;;;;8.94;100.00;99231.88;10399362;28;20088;-69
2023/04/01 03:17:40;;;;;;;50.35;22.77;;;;;;;9.00;100.00;99247.19;10385309;28;20049;-70
2023/04/01 03:22:41;;;;;;;47.92;22.33;;;;;;;8.99;100.00;99242.84;10428344;28;20588;-69
2023/04/01 03:27:41;;;;;;;48.55;21.70;;;;;;;9.00;100.00;99251.88;10428277;28;20120;-70
2023/04/01 03:32:42;;;;;;;46.90;20.73;;;;;;;8.99;100.00;99251.06;10427214;28;20038;-70
2023/04/01 03:37:42;;;;;;;50.55;21.67;;;;;;;8.98;100.00;99254.91;10426320;28;20041;-70
2023/04/01 03:42:43;;;;;;;49.30;22.45;;;;;;;8.96;100.00;99254.38;10426673;28;20060;-70
2023/04/01 03:47:43;;;;;;;48.92;22.80;;;;;;;8.99;100.00;99264.78;10392055;28;20048;-70
2023/04/01 03:52:44;;;;;;;53.45;24.08;;;;;;;8.98;100.00;99265.88;10387273;28;20034;-71
2023/04/01 03:57:44;;;;;;;53.30;24.38;;;;;;;8.97;100.00;99268.91;10362770;28;20038;-71
2023/04/01 04:02:45;;;;;;;58.15;22.75;;;;;;;8.98;100.00;99273.31;10362587;28;20042;-70
2023/04/01 04:07:46;;;;;;;53.40;21.60;;;;;;;8.99;100.00;99284.00;10379896;28;20139;-70
2023/04/01 04:12:46;;;;;;;50.10;20.35;;;;;;;8.99;100.00;99283.16;10399652;28;20064;-71
2023/04/01 04:17:47;;;;;;;47.55;20.60;;;;;;;8.97;100.00;99288.13;10460496;28;20099;-71
2023/04/01 04:22:47;;;;;;;50.35;21.27;;;;;;;8.97;100.00;99291.69;10444050;28;20036;-70
2023/04/01 04:27:49;;;;;;;55.78;20.55;;;;;;;8.93;100.00;99296.13;10460938;28;20044;-71
2023/04/01 04:32:49;;;;;;;48.00;20.77;;;;;;;8.98;100.00;99309.81;10459064;28;20037;-70
2023/04/01 04:37:50;;;;;;;55.70;23.48;;;;;;;8.96;100.00;99311.19;10458896;28;20037;-70
2023/04/01 04:42:50;;;;;;;59.28;22.77;;;;;;;8.95;100.00;99309.53;10418534;28;20042;-70
2023/04/01 04:47:51;;;;;;;55.75;22.50;;;;;;;8.96;100.00;99322.97;10359704;28;20034;-71
2023/04/01 04:52:51;;;;;;;58.50;22.67;;;;;;;8.95;100.00;99332.34;10379615;28;20046;-70
2023/04/01 04:57:52;;;;;;;57.65;22.63;;;;;;;8.93;100.00;99329.06;10360511;28;20038;-66
2023/04/01 05:02:52;;;;;;;57.35;22.17;;;;;;;8.82;100.00;99321.94;10382028;28;20158;-71
2023/04/01 05:07:53;;;;;;;71.43;22.95;;;;;;;8.91;100.00;99344.13;10417013;28;20029;-71
2023/04/01 05:12:53;;;;;;;60.00;21.50;;;;;;;8.90;100.00;99354.28;10399650;28;20025;-71
2023/04/01 05:17:54;;;;;;;54.65;22.10;;;;;;;8.87;100.00;99352.94;10400600;28;20040;-70
2023/04/01 05:22:58;;;;;;;57.20;21.95;;;;;;;8.88;100.00;99360.06;10417480;28;20038;-70
2023/04/01 05:27:58;;;;;;;67.10;25.70;;;;;;;8.91;100.00;99364.19;10416811;28;20030;-70
2023/04/01 05:32:59;;;;;;;64.53;25.00;;;;;;;8.94;100.00;99369.09;10358449;28;20045;-71
2023/04/01 05:37:59;;;;;;;68.80;26.25;;;;;;;8.98;100.00;99396.81;10375595;28;20033;-71
2023/04/01 05:43:00;;;;;;;82.05;30.23;;;;;;;8.99;100.00;99388.31;10375290;28;20112;-71
2023/04/01 05:48:01;;;;;;;79.05;28.95;;;;;;;9.00;100.00;99389.94;10376022;28;20038;-71
2023/04/01 05:53:01;;;;;;;76.13;29.65;;;;;;;9.03;100.00;99388.56;10376127;28;20061;-71
2023/04/01 05:58:02;;;;;;;69.63;26.33;;;;;;;9.08;100.00;99396.78;10390726;28;20053;-71
2023/04/01 06:03:02;;;;;;;74.20;28.23;;;;;;;9.13;100.00;99395.94;10375265;28;20045;-70
2023/04/01 06:08:09;;;;;;;80.05;27.88;;;;;;;9.15;100.00;99396.47;10374175;28;20042;-71
2023/04/01 06:13:46;;;;;;;69.97;28.55;;;;;;;9.22;100.00;99425.28;10374896;28;20081;-70
2023/04/01 06:19:07;;;;;;;72.18;26.50;;;;;;;9.24;100.00;99427.72;10376792;28;20048;-71
2023/04/01 06:24:45;;;;;;;67.85;27.98;;;;;;;9.29;100.00;99441.44;10373933;28;20033;-71
2023/04/01 06:29:54;;;;;;;66.07;26.38;;;;;;;9.34;100.00;99443.34;10374595;28;20077;-70
2023/04/01 06:35:17;;;;;;;64.85;26.20;;;;;;;9.37;100.00;99449.09;10374661;28;20531;-70
2023/04/01 06:40:43;;;;;;;68.15;25.20;;;;;;;9.35;100.00;99450.50;10384364;28;20195;-70
2023/04/01 06:45:53;;;;;;;66.35;26.45;;;;;;;9.49;100.00;99462.53;10369776;28;20062;-71
2023/04/01 06:51:23;;;;;;;70.78;26.17;;;;;;;9.56;100.00;99467.72;10372936;28;20154;-70
2023/04/01 06:56:26;;;;;;;61.00;24.17;;;;;;;9.64;100.00;99475.38;10359128;28;20042;-70
2023/04/01 07:01:34;;;;;;;60.58;24.17;;;;;;;9.76;100.00;99480.53;10374426;28;20034;-70
2023/04/01 07:06:58;;;;;;;64.60;26.33;;;;;;;9.76;100.00;99462.09;10373995;28;20441;-71
2023/04/01 07:12:01;;;;;;;58.20;24.73;;;;;;;10.06;100.00;99477.56;10378485;28;20053;-71
2023/04/01 07:17:28;;;;;;;45.30;21.25;;;;;;;10.37;100.00;99487.56;10354998;28;20046;-70
2023/04/01 07:22:33;;;;;;;47.95;22.27;;;;;;;10.40;100.00;99492.53;10353982;28;20042;-69
2023/04/01 07:27:33;;;;;;;40.53;19.50;;;;;;;10.39;100.00;99504.63;10356562;28;20113;-70
2023/04/01 07:32:55;;;;;;;43.08;20.05;;;;;;;10.32;100.00;99507.69;10361258;28;20034;-70
2023/04/01 07:38:05;;;;;;;33.70;18.85;;;;;;;10.34;100.00;99523.94;10378361;28;20044;-70
2023/04/01 07:43:25;;;;;;;32.05;17.02;;;;;;;10.17;100.00;99522.34;10418769;28;20113;-70
2023/04/01 07:48:47;;;;;;;39.28;20.10;;;;;;;10.20;100.00;99534.72;10406351;28;20058;-70
2023/04/01 07:54:03;;;;;;;38.45;19.20;;;;;;;10.23;100.00;99543.22;10394468;28;20119;-70
2023/04/01 07:59:30;;;;;;;36.05;18.88;;;;;;;10.33;100.00;99553.34;10403032;28;20105;-70
2023/04/01 08:05:03;;;;;;;31.13;16.95;;;;;;;10.33;100.00;99553.34;10400265;28;20085;-70
2023/04/01 08:10:12;;;;;;;27.25;15.05;;;;;;;10.35;100.00;99562.13;10386955;28;20049;-70
2023/04/01 08:15:23;;;;;;;28.45;16.42;;;;;;;10.38;100.00;99574.53;10399992;28;20489;-69
2023/04/01 08:20:35;;;;;;;27.88;15.00;;;;;;;10.34;100.00;99577.00;10414579;28;20460;-69
2023/04/01 08:25:35;;;;;;;24.85;16.15;;;;;;;10.29;100.00;99575.13;10382255;28;20033;-70
2023/04/01 08:30:47;;;;;;;25.52;15.73;;;;;;;10.36;100.00;99580.31;10388230;28;20041;-70
2023/04/01 08:35:51;;;;;;;24.80;15.95;;;;;;;10.57;100.00;99586.50;10401298;28;20046;-70
2023/04/01 08:40:58;;;;;;;26.05;14.77;;;;;;;10.74;100.00;99601.78;10380124;28;20030;-70
2023/04/01 08:46:14;;;;;;;21.15;13.80;;;;;;;10.76;100.00;99607.81;10410412;28;20048;-70
2023/04/01 08:51:39;;;;;;;17.35;11.75;;;;;;;10.78;100.00;99608.38;10412782;28;20041;-70
2023/04/01 08:56:55;;;;;;;14.88;9.70;;;;;;;10.82;100.00;99614.94;10383608;28;20049;-69
2023/04/01 09:02:04;;;;;;;13.37;8.47;;;;;;;10.79;100.00;99621.00;10363375;28;20493;-70
2023/04/01 09:07:14;;;;;;;10.02;7.22;;;;;;;10.79;100.00;99619.09;10397878;28;20299;-70
2023/04/01 09:12:17;;;;;;;12.23;7.93;;;;;;;10.80;100.00;99628.16;10397911;28;20513;-70
2023/04/01 09:17:44;;;;;;;11.20;7.18;;;;;;;10.73;100.00;99635.91;10397551;28;20045;-70
2023/04/01 09:22:55;;;;;;;8.35;7.18;;;;;;;10.60;100.00;99640.94;10396878;28;20089;-70
2023/04/01 09:28:05;;;;;;;7.72;6.20;;;;;;;10.30;100.00;99658.47;10370599;28;20038;-68
2023/04/01 09:33:18;;;;;;;8.68;6.55;;;;;;;10.32;100.00;99671.94;10396876;28;20038;-68
2023/04/01 09:38:39;;;;;;;8.30;6.07;;;;;;;10.19;100.00;99679.66;10396423;28;20042;-69
2023/04/01 09:44:01;;;;;;;6.22;4.53;;;;;;;10.15;100.00;99700.59;10395773;28;20105;-69
2023/04/01 09:49:24;;;;;;;5.75;4.82;;;;;;;10.34;100.00;99708.25;10397023;28;20054;-70
2023/04/01 09:54:27;;;;;;;5.82;4.30;;;;;;;10.44;100.00;99714.53;10380077;28;20062;-65
2023/04/01 09:59:49;;;;;;;3.53;3.22;;;;;;;10.05;100.00;99723.44;10395735;28;20073;-69
2023/04/01 10:05:14;;;;;;;4.43;4.03;;;;;;;10.00;100.00;99733.59;10386290;28;20490;-68
2023/04/01 10:10:33;;;;;;;3.80;3.40;;;;;;;10.04;100.00;99734.69;10396636;28;20048;-70
2023/04/01 10:16:08;;;;;;;4.10;3.70;;;;;;;9.98;100.00;99749.56;10379592;28;20101;-70
2023/04/01 10:21:30;;;;;;;4.20;2.83;;;;;;;9.89;100.00;99752.88;10374342;28;20045;-70
2023/04/01 10:26:49;;;;;;;3.25;2.95;;;;;;;10.00;100.00;99756.41;10388798;28;20054;-70
2023/04/01 10:32:08;;;;;;;3.22;2.92;;;;;;;9.94;100.00;99757.53;10392161;28;20044;-71
2023/04/01 10:37:27;;;;;;;5.00;2.83;;;;;;;9.87;100.00;99777.06;10397821;28;20046;-71
2023/04/01 10:42:40;;;;;;;5.03;2.72;;;;;;;9.88;100.00;99775.13;10381314;28;20045;-70
2023/04/01 10:48:44;;;;;;;3.60;2.88;;;;;;;9.87;100.00;99774.31;10396614;28;20062;-71
2023/04/01 10:54:05;;;;;;;3.40;2.97;;;;;;;10.04;100.00;99793.25;10173453;28;20050;-71
2023/04/01 10:59:27;;;;;;;5.07;3.13;;;;;;;10.23;100.00;99793.53;10366649;28;20056;-72
2023/04/01 11:04:52;;;;;;;2.65;2.22;;;;;;;10.17;100.00;99802.91;10395417;28;20061;-72
2023/04/01 11:10:18;;;;;;;2.50;2.10;;;;;;;10.39;100.00;99804.50;10365619;28;20045;-71
2023/04/01 11:15:31;;;;;;;2.00;1.90;;;;;;;10.52;100.00;99809.41;10379880;28;20034;-72
2023/04/01 11:20:56;;;;;;;2.35;2.15;;;;;;;10.45;100.00;99817.16;10378169;28;20042;-72
2023/04/01 11:26:16;;;;;;;2.78;2.53;;;;;;;10.50;100.00;99815.22;10379023;28;20037;-72
2023/04/01 11:31:27;;;;;;;3.97;3.55;;;;;;;10.59;100.00;99811.88;10382567;28;20090;-71
2023/04/01 11:36:52;;;;;;;4.00;3.60;;;;;;;10.75;100.00;99845.66;10379929;28;20034;-72
2023/04/01 11:42:18;;;;;;;3.20;2.90;;;;;;;10.82;100.00;99879.25;10378457;28;20398;-72
2023/04/01 11:47:43;;;;;;;2.33;2.03;;;;;;;10.71;100.00;99856.44;10361873;28;20550;-71
2023/04/01 11:53:06;;;;;;;3.95;1.90;;;;;;;10.70;100.00;99872.13;10382164;28;20037;-72
2023/04/01 11:58:31;;;;;;;3.92;2.28;;;;;;;10.64;100.00;99878.72;10361903;28;20048;-71
2023/04/01 12:03:48;;;;;;;3.35;2.20;;;;;;;10.55;100.00;99890.63;10378023;28;20057;-72
2023/04/01 12:08:57;;;;;;;2.40;2.20;;;;;;;10.49;100.00;99909.88;10378731;28;20048;-72
2023/04/01 12:14:03;;;;;;;4.90;2.72;;;;;;;10.20;100.00;99920.59;10378785;28;20030;-70
2023/04/01 12:19:41;;;;;;;3.65;3.15;;;;;;;10.28;100.00;99925.53;10379439;28;20045;-71
2023/04/01 12:25:23;;;;;;;3.13;2.40;;;;;;;10.20;100.00;99939.84;10361491;28;20042;-71
2023/04/01 12:30:53;;;;;;;2.95;2.65;;;;;;;9.94;100.00;99951.91;10361197;28;20034;-72
2023/04/01 12:35:56;;;;;;;3.33;2.42;;;;;;;9.79;100.00;99961.78;10378146;28;20413;-71
2023/04/01 12:41:10;;;;;;;2.10;1.90;;;;;;;9.79;100.00;99964.53;10376066;28;20040;-72
2023/04/01 12:46:51;;;;;;;2.42;1.75;;;;;;;9.92;100.00;99974.19;10376567;28;20441;-72
2023/04/01 12:52:06;;;;;;;2.40;2.20;;;;;;;9.87;100.00;99997.00;10257494;28;20560;-72
2023/04/01 12:57:28;;;;;;;2.47;2.13;;;;;;;9.80;100.00;99995.63;10362280;28;20065;-72
2023/04/01 13:02:58;;;;;;;2.50;2.30;;;;;;;9.56;100.00;100006.25;10376727;28;20088;-72
2023/04/01 13:08:04;;;;;;;1.67;1.27;;;;;;;9.46;100.00;100007.84;10375434;28;20117;-72
2023/04/01 13:13:23;;;;;;;1.70;1.60;;;;;;;9.28;100.00;100022.03;10358961;28;20034;-72
2023/04/01 13:18:39;;;;;;;1.80;1.70;;;;;;;9.37;100.00;100047.13;10378999;28;20061;-71
2023/04/01 13:23:48;;;;;;;5.20;2.60;;;;;;;9.31;100.00;100049.00;10376990;28;20050;-73
2023/04/01 13:28:59;;;;;;;2.50;2.28;;;;;;;9.35;100.00;100055.63;10375706;28;20033;-71
2023/04/01 13:34:06;;;;;;;2.22;2.03;;;;;;;9.33;100.00;100068.78;10375008;28;20034;-71
2023/04/01 13:39:20;;;;;;;2.38;2.17;;;;;;;9.32;100.00;100067.13;10377610;28;20046;-71
2023/04/01 13:44:23;;;;;;;2.38;2.17;;;;;;;9.29;100.00;100086.88;10359341;28;20042;-70
2023/04/01 13:50:06;;;;;;;2.25;1.98;;;;;;;9.28;100.00;100088.81;10357828;28;20042;-71
2023/04/01 13:55:19;;;;;;;2.20;2.00;;;;;;;9.32;100.00;100105.56;10348411;28;20046;-71
2023/04/01 14:00:52;;;;;;;2.35;2.15;;;;;;;9.23;100.00;100107.19;10374309;28;20557;-72
2023/04/01 14:06:11;;;;;;;1.92;1.73;;;;;;;9.20;100.00;100114.03;10367373;28;20553;-72
2023/04/01 14:11:49;;;;;;;2.00;1.90;;;;;;;9.04;100.00;100123.25;10398862;28;20045;-71
2023/04/01 14:16:55;;;;;;;2.78;2.28;;;;;;;9.15;100.00;100146.94;10415563;28;20049;-72
2023/04/01 14:22:27;;;;;;;2.28;1.88;;;;;;;9.31;100.00;100144.31;10414641;28;20424;-72
2023/04/01 14:27:40;;;;;;;2.17;1.98;;;;;;;9.13;100.00;100153.78;10381386;28;20046;-72
2023/04/01 14:32:43;;;;;;;3.25;2.00;;;;;;;9.01;100.00;100162.19;10384784;28;20045;-72
2023/04/01 14:38:02;;;;;;;1.92;1.80;;;;;;;8.77;100.00;100176.25;10374305;28;20478;-72
2023/04/01 14:43:05;;;;;;;2.35;1.98;;;;;;;8.82;100.00;100180.97;10355714;28;20042;-71
2023/04/01 14:48:06;;;;;;;1.88;1.40;;;;;;;8.82;100.00;100194.69;10375600;28;20052;-72
2023/04/01 14:53:24;;;;;;;1.83;1.63;;;;;;;8.80;100.00;100205.91;10375487;28;20392;-72
2023/04/01 14:58:40;;;;;;;2.47;2.28;;;;;;;8.77;100.00;100213.88;10376339;28;20301;-72
2023/04/01 15:03:52;;;;;;;2.50;2.30;;;;;;;8.68;100.00;100227.19;10412677;28;20056;-72
2023/04/01 15:09:05;;;;;;;2.58;2.20;;;;;;;8.60;100.00;100235.88;10414218;28;20048;-72
2023/04/01 15:14:24;;;;;;;3.53;3.20;;;;;;;8.53;100.00;100258.03;10416585;28;20064;-72
2023/04/01 15:19:49;;;;;;;4.38;3.10;;;;;;;8.31;100.00;100259.91;10412507;28;20049;-72
2023/04/01 15:25:16;;;;;;;6.25;3.92;;;;;;;8.12;100.00;100273.09;10395411;28;20048;-72
2023/04/01 15:30:37;;;;;;;5.15;3.53;;;;;;;7.96;100.00;100293.97;10405392;28;20048;-70
2023/04/01 15:35:57;;;;;;;8.05;3.97;;;;;;;7.91;100.00;100299.38;10380986;28;20053;-73
2023/04/01 15:41:19;;;;;;;5.63;4.07;;;;;;;7.87;100.00;100313.59;10396144;28;20029;-72
2023/04/01 15:46:47;;;;;;;5.28;3.33;;;;;;;7.81;100.00;100333.78;10412000;28;20468;-72
2023/04/01 15:52:07;;;;;;;6.93;4.53;;;;;;;7.65;100.00;100332.69;10415088;28;20084;-72
2023/04/01 15:57:22;;;;;;;8.30;4.40;;;;;;;7.55;100.00;100353.63;10422288;28;20038;-72
2023/04/01 16:02:42;;;;;;;6.15;4.57;;;;;;;7.51;100.00;100363.41;10418392;28;20635;-72
2023/04/01 16:08:07;;;;;;;5.50;4.53;;;;;;;7.52;100.00;100378.75;10419446;28;20114;-71
2023/04/01 16:13:18;;;;;;;5.95;4.03;;;;;;;7.39;100.00;100396.31;10419116;28;20029;-71
2023/04/01 16:18:41;;;;;;;7.38;4.45;;;;;;;7.31;100.00;100389.31;10420957;28;20045;-71
2023/04/01 16:24:05;;;;;;;6.55;4.57;;;;;;;7.20;100.00;100409.38;10401622;28;20045;-67
2023/04/01 16:29:10;;;;;;;8.52;4.57;;;;;;;7.18;100.00;100427.94;10401616;28;20034;-72
2023/04/01 16:34:17;;;;;;;8.40;5.60;;;;;;;6.24;100.00;100303.13;10417880;28;20048;-72
2023/04/01 16:39:46;;;;;;;7.82;5.25;;;;;;;6.86;100.00;100420.16;10401919;28;20052;-70
2023/04/01 16:45:00;;;;;;;10.82;5.65;;;;;;;6.95;100.00;100462.50;10417480;28;20041;-71
2023/04/01 16:50:18;;;;;;;10.20;5.40;;;;;;;6.89;100.00;100474.41;10400454;28;20049;-72
2023/04/01 16:55:20;;;;;;;10.63;6.60;;;;;;;6.78;100.00;100478.84;10417109;28;20129;-73
2023/04/01 17:00:30;;;;;;;9.50;5.50;;;;;;;6.69;100.00;100484.91;10399781;28;20065;-72
2023/04/01 17:05:51;;;;;;;9.77;6.13;;;;;;;6.57;100.00;100518.53;10419797;28;20041;-72
2023/04/01 17:11:04;;;;;;;10.82;6.30;;;;;;;6.44;100.00;100526.97;10418496;28;20144;-72
2023/04/01 17:16:22;;;;;;;10.00;6.65;;;;;;;6.25;100.00;100507.91;10399299;28;20049;-72
2023/04/01 17:21:46;;;;;;;9.93;6.07;;;;;;;6.30;100.00;100561.06;10415953;28;20413;-73
2023/04/01 17:26:50;;;;;;;8.60;6.47;;;;;;;6.21;100.00;100560.56;10417529;28;20064;-71
2023/04/01 17:32:05;;;;;;;12.63;7.53;;;;;;;6.21;100.00;100576.97;10367454;28;20034;-72
2023/04/01 17:37:09;;;;;;;15.27;8.20;;;;;;;6.24;100.00;100593.75;10386281;28;20049;-72
2023/04/01 17:42:17;;;;;;;10.43;7.18;;;;;;;6.23;100.00;100607.63;10416252;28;20045;-71
2023/04/01 17:47:27;;;;;;;9.68;7.10;;;;;;;6.21;100.00;100612.50;10416140;28;20204;-72
2023/04/01 17:52:31;;;;;;;8.25;5.95;;;;;;;6.11;100.00;100618.53;10396141;28;20041;-72
2023/04/01 17:57:45;;;;;;;8.85;6.78;;;;;;;6.14;100.00;100637.19;10390709;28;20030;-72
2023/04/01 18:03:08;;;;;;;8.60;5.70;;;;;;;6.04;100.00;100642.38;10361568;28;20037;-72
2023/04/01 18:08:21;;;;;;;11.70;6.63;;;;;;;5.96;100.00;100664.56;10393890;28;20040;-72
2023/04/01 18:13:21;;;;;;;11.15;6.65;;;;;;;5.90;100.00;100668.16;10393972;28;20105;-72
2023/04/01 18:18:45;;;;;;;9.65;6.38;;;;;;;5.89;100.00;100688.34;10404701;28;20069;-72
2023/04/01 18:23:59;;;;;;;15.27;6.97;;;;;;;5.84;100.00;100700.78;10404161;28;20096;-72
2023/04/01 18:29:11;;;;;;;9.13;5.45;;;;;;;5.85;100.00;100713.41;10377809;28;20090;-72
2023/04/01 18:34:29;;;;;;;10.55;6.15;;;;;;;5.78;100.00;100726.28;10377941;28;20079;-72
2023/04/01 18:39:46;;;;;;;12.23;6.28;;;;;;;5.65;100.00;100740.91;10395243;28;20447;-71
2023/04/01 18:44:52;;;;;;;10.10;6.22;;;;;;;5.64;100.00;100750.19;10394141;28;20071;-72
2023/04/01 18:49:59;;;;;;;11.10;6.67;;;;;;;5.71;100.00;100766.50;10377241;28;20048;-72
2023/04/01 18:55:01;;;;;;;18.20;6.85;;;;;;;5.66;100.00;100777.25;10410165;28;20049;-71
2023/04/01 19:00:08;;;;;;;15.52;6.13;;;;;;;5.57;100.00;100787.63;10392862;28;20600;-72
2023/04/01 19:05:12;;;;;;;10.30;6.80;;;;;;;5.54;100.00;100795.44;10394445;28;20045;-71
2023/04/01 19:10:13;;;;;;;12.18;7.63;;;;;;;5.55;100.00;100814.31;10393962;28;20044;-71
2023/04/01 19:15:20;;;;;;;11.00;7.03;;;;;;;5.51;100.00;100828.66;10392982;28;20044;-72
2023/04/01 19:20:40;;;;;;;;;;;;;;;5.44;100.00;100835.00;10393714;28;20049;-71
2023/04/01 19:25:55;;;;;;;17.67;8.40;;;;;;;5.39;100.00;100851.19;10413032;28;19979;-72
2023/04/01 19:30:58;;;;;;;15.30;7.78;;;;;;;5.34;100.00;100863.84;10385561;28;20444;-71
2023/04/01 19:36:00;;;;;;;14.10;6.80;;;;;;;5.18;100.00;100862.47;10401069;28;20033;-71
2023/04/01 19:41:40;;;;;;;19.60;7.93;;;;;;;5.22;100.00;100893.72;10400701;28;20056;-72
2023/04/01 19:47:07;;;;;;;10.05;6.47;;;;;;;5.16;100.00;100886.41;10399658;28;20095;-71
2023/04/01 19:52:16;;;;;;;;;;;;;;;5.20;100.00;100904.03;10381480;28;20041;-71
2023/04/01 19:57:35;;;;;;;14.60;7.20;;;;;;;5.12;100.00;100912.47;10417852;28;20292;-72
2023/04/01 20:02:38;;;;;;;15.07;7.57;;;;;;;5.12;100.00;100931.56;10415392;28;20236;-72
2023/04/01 20:07:44;;;;;;;16.40;7.03;;;;;;;5.08;100.00;100939.34;10416797;28;20041;-71
2023/04/01 20:12:56;;;;;;;7.40;5.63;;;;;;;5.01;100.00;100944.00;10357338;28;20072;-72
2023/04/01 20:17:57;;;;;;;11.60;6.10;;;;;;;4.97;100.00;100970.88;10381531;28;20045;-71
2023/04/01 20:23:17;;;;;;;8.25;5.43;;;;;;;4.94;100.00;100968.59;10364162;28;20057;-72
2023/04/01 20:28:17;;;;;;;12.38;5.63;;;;;;;4.92;100.00;100984.34;10397535;28;20076;-71
2023/04/01 20:33:21;;;;;;;8.90;5.90;;;;;;;4.90;100.00;100997.34;10413566;28;20041;-72
2023/04/01 20:39:12;;;;;;;9.65;5.30;;;;;;;4.86;100.00;101009.75;10409193;28;20101;-72
2023/04/01 20:44:14;;;;;;;9.60;5.95;;;;;;;4.88;100.00;101026.75;10351780;28;20057;-70
2023/04/01 20:49:21;;;;;;;8.57;4.90;;;;;;;4.79;100.00;101037.00;10357321;28;20038;-71
2023/04/01 20:54:25;;;;;;;9.77;4.97;;;;;;;4.79;100.00;101039.75;10340812;28;20098;-71
2023/04/01 20:59:35;;;;;;;14.90;6.00;;;;;;;4.81;100.00;101047.72;10372985;28;20053;-71
2023/04/01 21:05:13;;;;;;;6.25;4.10;;;;;;;4.77;100.00;101062.84;10356177;28;20038;-71
2023/04/01 21:10:34;;;;;;;10.68;5.72;;;;;;;4.77;100.00;101065.56;10387866;28;20057;-72
2023/04/01 21:16:00;;;;;;;13.35;5.53;;;;;;;4.73;100.00;101072.50;10372824;28;20037;-71
2023/04/01 21:21:11;;;;;;;11.10;5.25;;;;;;;4.67;100.00;101076.06;10371853;28;20053;-71
2023/04/01 21:26:39;;;;;;;8.05;5.50;;;;;;;4.65;100.00;101092.63;10393548;28;20413;-71
2023/04/01 21:31:57;;;;;;;10.30;5.78;;;;;;;4.62;100.00;101107.53;10413070;28;20037;-71
2023/04/01 21:37:00;;;;;;;9.38;4.65;;;;;;;4.57;100.00;101123.69;10398481;28;20047;-71
2023/04/01 21:42:19;;;;;;;10.10;4.93;;;;;;;4.50;100.00;101122.81;10413782;28;20068;-71
2023/04/01 21:48:01;;;;;;;6.85;4.28;;;;;;;4.39;100.00;101131.63;10412435;28;20045;-71
2023/04/01 21:53:07;;;;;;;7.22;4.35;;;;;;;4.36;100.00;101140.22;10392077;28;20041;-71
2023/04/01 21:58:07;;;;;;;15.05;5.68;;;;;;;4.35;100.00;101158.44;10399149;28;20037;-71
2023/04/01 22:03:37;;;;;;;11.65;5.43;;;;;;;4.35;100.00;101169.34;10394710;28;20132;-70
2023/04/01 22:08:41;;;;;;;6.88;4.03;;;;;;;4.37;100.00;101178.16;10391639;28;20132;-71
2023/04/01 22:13:49;;;;;;;9.90;5.25;;;;;;;4.32;100.00;101185.28;10413269;28;20057;-71
2023/04/01 22:19:12;;;;;;;12.85;4.72;;;;;;;4.34;100.00;101205.00;10412617;28;20045;-71
2023/04/01 22:24:20;;;;;;;10.88;4.45;;;;;;;4.31;100.00;101211.69;10411586;28;20143;-68
2023/04/01 22:29:41;;;;;;;16.75;5.70;;;;;;;4.25;100.00;101226.16;10394320;28;20033;-72
2023/04/01 22:35:04;;;;;;;8.15;3.85;;;;;;;4.21;100.00;101231.16;10394651;28;20093;-71
2023/04/01 22:40:24;;;;;;;11.35;4.65;;;;;;;4.14;100.00;101249.38;10395651;28;20114;-71
2023/04/01 22:45:40;;;;;;;12.68;4.45;;;;;;;4.10;100.00;101258.16;10393174;28;20052;-72
2023/04/01 22:51:10;;;;;;;7.32;4.78;;;;;;;4.03;100.00;101275.31;10353322;28;20038;-71
2023/04/01 22:56:16;;;;;;;8.45;4.70;;;;;;;3.93;100.00;101284.91;10346444;28;20044;-72
2023/04/01 23:01:21;;;;;;;7.80;4.78;;;;;;;3.68;100.00;101276.34;10343584;28;20057;-72
2023/04/01 23:06:28;;;;;;;5.80;3.85;;;;;;;3.59;100.00;101283.81;10362014;28;20101;-72
2023/04/01 23:11:48;;;;;;;;;;;;;;;3.59;100.00;101300.16;10361905;28;20462;-71
2023/04/01 23:17:27;;;;;;;5.68;3.60;;;;;;;3.56;100.00;101312.28;10370974;28;19937;-73
2023/04/01 23:22:30;;;;;;;7.72;3.53;;;;;;;3.55;100.00;101323.38;10362598;28;20041;-73
2023/04/01 23:27:39;;;;;;;6.53;3.78;;;;;;;3.06;100.00;101267.03;10362047;28;20038;-73
2023/04/01 23:32:40;;;;;;;14.43;4.07;;;;;;;3.48;100.00;101338.81;10361081;28;20049;-73
2023/04/01 23:37:40;;;;;;;7.85;3.33;;;;;;;3.37;100.00;101327.41;10378464;28;20494;-72
2023/04/01 23:42:41;;;;;;;9.10;3.15;;;;;;;3.38;100.00;101347.31;10372720;28;20048;-72
2023/04/01 23:47:41;;;;;;;5.15;3.25;;;;;;;3.34;100.00;101363.19;10402629;28;21111;-72